NFTL/HPA METAR and TAF weather

Enter ICAO airport designator
Station Type Date Time Source
NFTL METAR 2020/01/24 03:00 UTC NOAA

NFTL 240300Z 10012KT 9999 SCT017TCU BKN290 29/22 Q1007


Station Type Date Time Source
NFTL Decoded METAR 2020/01/24 03:00 UTC NOAA

Haapai, Tonga (NFTL) 19-48S 174-21W 3M
Jan 23, 2020 - 10:00 PM EST / 2020.01.24 0300 UTC
Wind: from the E (100 degrees) at 14 MPH (12 KT):0
Visibility: greater than 7 mile(s):0
Sky conditions: mostly cloudy
Weather: Towering cumulus clouds observed
Temperature: 84 F (29 C)
Dew Point: 71 F (22 C)
Relative Humidity: 65%
Pressure (altimeter): 29.74 in. Hg (1007 hPa)
ob: NFTL 240300Z 10012KT 9999 SCT017TCU BKN290 29/22 Q1007
cycle: 3

Station Type Date Time Source
NFTL TAF 2018/02/21 17:19 UTC NOAA

TAF NFTL 211605Z 2117/2208 12010KT 9999 SCT018

Example: see airport list